Temp: 7.8°C   Baro: 1033.0mb
  Wind: 9.0mph   Dir: ENE (77°)
  Rain: 0.0mm (0.0mm/hr)
  Solar: 244W/m2  Hum: 70%
 
Bath Spa Weather Historical Data
Daily Summary for February 14, 2020 Units:  Metric    English   Both
Next Day »
Daily Weekly Monthly Yearly Custom
  High: Low: Average:
Temperature: 11.8 °C 2.8 °C 9.7 °C
Dew Point: 10.7 °C 1.6 °C 8.2 °C
Humidity: 94% 78% 90%
Wind Speed: 25.9km/h 0.0km/h 8.9km/h
Wind Gust: 38.6km/h - -
Wind direction- - SSW
Pressure: 1016.8 hPa 1008.4 hPa -
Precipitation: 0.5 mm    
Historical Graphs
 
 
Tabular Data for February 14, 2020
Time Temperature Dew Point Pressure Wind direction Wind Speed Wind Gust Humidity Rainfall Rate (Hourly) solar
00:00 3.8 °C 2.5 °C 1015.8 hPa North 4.7 km/h 6.4 km/h 91% 0.0 mm 0.00 W/m2
00:05 3.8 °C 2.5 °C 1016.1 hPa Calm   1.6 km/h 91% 0.0 mm 0.00 W/m2
00:10 3.8 °C 2.5 °C 1015.8 hPa Calm   1.6 km/h 91% 0.0 mm 0.00 W/m2
00:15 3.8 °C 2.5 °C 1015.8 hPa North 1.4 km/h 3.2 km/h 91% 0.0 mm 0.00 W/m2
00:20 3.8 °C 2.5 °C 1015.8 hPa Calm   3.2 km/h 91% 0.0 mm 0.00 W/m2
00:25 3.8 °C 2.5 °C 1015.8 hPa North 1.4 km/h 3.2 km/h 91% 0.0 mm 0.00 W/m2
00:30 3.7 °C 2.4 °C 1015.8 hPa North 1.4 km/h 3.2 km/h 91% 0.0 mm 0.00 W/m2
00:35 3.6 °C 2.3 °C 1016.1 hPa Calm   3.2 km/h 91% 0.0 mm 0.00 W/m2
00:40 3.5 °C 2.2 °C 1015.8 hPa North 1.4 km/h 3.2 km/h 91% 0.0 mm 0.00 W/m2
00:45 3.4 °C 2.1 °C 1015.8 hPa Calm   3.2 km/h 91% 0.0 mm 0.00 W/m2
00:50 3.2 °C 1.9 °C 1015.8 hPa North 3.2 km/h 3.2 km/h 91% 0.0 mm 0.00 W/m2
00:55 2.9 °C 1.6 °C 1016.1 hPa North 4.7 km/h 6.4 km/h 91% 0.0 mm 0.00 W/m2
01:00 3.0 °C 1.7 °C 1016.1 hPa North 4.7 km/h 6.4 km/h 91% 0.0 mm 0.00 W/m2
01:05 3.1 °C 1.8 °C 1016.1 hPa North 3.2 km/h 4.8 km/h 91% 0.0 mm 0.00 W/m2
01:10 2.9 °C 1.7 °C 1015.8 hPa North 3.2 km/h 4.8 km/h 92% 0.0 mm 0.00 W/m2
01:15 3.1 °C 1.9 °C 1015.8 hPa North 1.4 km/h 1.6 km/h 92% 0.0 mm 0.00 W/m2
01:20 3.0 °C 1.8 °C 1015.8 hPa Calm   3.2 km/h 92% 0.0 mm 0.00 W/m2
01:25 2.9 °C 1.7 °C 1015.8 hPa Calm     92% 0.0 mm 0.00 W/m2
01:30 2.9 °C 1.7 °C 1015.8 hPa Calm     92% 0.0 mm 0.00 W/m2
01:35 2.8 °C 1.6 °C 1016.1 hPa Calm   1.6 km/h 92% 0.0 mm 0.00 W/m2
01:40 2.9 °C 1.7 °C 1016.1 hPa North 6.4 km/h 6.4 km/h 92% 0.0 mm 0.00 W/m2
01:45 3.2 °C 2.0 °C 1016.1 hPa North 1.4 km/h 4.8 km/h 92% 0.0 mm 0.00 W/m2
01:50 3.1 °C 1.9 °C 1016.1 hPa North 1.4 km/h 3.2 km/h 92% 0.0 mm 0.00 W/m2
01:55 3.2 °C 2.0 °C 1016.1 hPa North 3.2 km/h 4.8 km/h 92% 0.0 mm 0.00 W/m2
02:00 3.3 °C 2.1 °C 1016.1 hPa Calm   1.6 km/h 92% 0.0 mm 0.00 W/m2
02:05 3.1 °C 1.9 °C 1016.1 hPa Calm   1.6 km/h 92% 0.0 mm 0.00 W/m2
02:10 3.1 °C 1.9 °C 1016.1 hPa North 3.2 km/h 4.8 km/h 92% 0.0 mm 0.00 W/m2
02:15 3.4 °C 2.2 °C 1016.1 hPa Calm   1.6 km/h 92% 0.0 mm 0.00 W/m2
02:20 3.2 °C 2.0 °C 1016.1 hPa Calm   4.8 km/h 92% 0.0 mm 0.00 W/m2
02:25 2.8 °C 1.6 °C 1016.1 hPa Calm   1.6 km/h 92% 0.0 mm 0.00 W/m2
02:30 2.8 °C 1.6 °C 1016.1 hPa North 4.7 km/h 4.8 km/h 92% 0.0 mm 5.00 W/m2
02:35 2.8 °C 1.6 °C 1016.1 hPa Calm   4.8 km/h 92% 0.0 mm 7.00 W/m2
02:40 3.2 °C 2.2 °C 1016.1 hPa NE 4.7 km/h 4.8 km/h 93% 0.0 mm 11.00 W/m2
02:45 3.5 °C 2.5 °C 1016.1 hPa East 3.2 km/h 3.2 km/h 93% 0.0 mm 16.00 W/m2
02:50 3.5 °C 2.5 °C 1016.1 hPa NNW 3.2 km/h 6.4 km/h 93% 0.0 mm 19.00 W/m2
02:55 3.7 °C 2.7 °C 1016.1 hPa NNW 4.7 km/h 4.8 km/h 93% 0.0 mm 26.00 W/m2
03:00 3.9 °C 2.9 °C 1016.5 hPa NNW 1.4 km/h 6.4 km/h 93% 0.0 mm 26.00 W/m2
03:05 4.2 °C 3.2 °C 1016.5 hPa NNW 1.4 km/h 4.8 km/h 93% 0.0 mm 28.00 W/m2
03:10 4.1 °C 3.1 °C 1016.5 hPa Calm   1.6 km/h 93% 0.0 mm 30.00 W/m2
03:15 4.2 °C 3.2 °C 1016.5 hPa SSW 3.2 km/h 3.2 km/h 93% 0.0 mm 35.00 W/m2
03:20 4.1 °C 3.1 °C 1016.8 hPa Calm   3.2 km/h 93% 0.0 mm 47.00 W/m2
03:25 4.4 °C 3.4 °C 1016.5 hPa WSW 1.4 km/h 1.6 km/h 93% 0.0 mm 54.00 W/m2
03:30 4.9 °C 3.9 °C 1016.5 hPa SW 1.4 km/h 1.6 km/h 93% 0.0 mm 65.00 W/m2
03:35 5.5 °C 4.5 °C 1016.5 hPa SW 3.2 km/h 3.2 km/h 93% 0.0 mm 70.00 W/m2
03:40 6.1 °C 5.1 °C 1016.5 hPa ESE 1.4 km/h 6.4 km/h 93% 0.0 mm 93.00 W/m2
03:45 6.6 °C 5.5 °C 1016.5 hPa Calm   1.6 km/h 93% 0.0 mm 123.00 W/m2
03:50 6.6 °C 5.5 °C 1016.5 hPa Calm   6.4 km/h 93% 0.0 mm 120.00 W/m2
03:55 6.9 °C 5.7 °C 1016.8 hPa SSW 1.4 km/h 8.0 km/h 92% 0.0 mm 62.00 W/m2
04:00 7.1 °C 5.9 °C 1016.8 hPa South 3.2 km/h 12.9 km/h 92% 0.0 mm 28.00 W/m2
04:05 7.3 °C 6.1 °C 1016.8 hPa SSW 3.2 km/h 11.3 km/h 92% 0.0 mm 44.00 W/m2
04:10 7.4 °C 6.0 °C 1016.5 hPa SW 3.2 km/h 11.3 km/h 91% 0.0 mm 58.00 W/m2
04:15 7.6 °C 6.2 °C 1016.5 hPa SSW 6.4 km/h 19.3 km/h 91% 0.0 mm 51.00 W/m2
04:20 7.9 °C 6.4 °C 1016.5 hPa South 17.7 km/h 17.7 km/h 90% 0.0 mm 118.00 W/m2
04:25 8.1 °C 6.4 °C 1016.1 hPa SW 9.7 km/h 22.5 km/h 89% 0.0 mm 102.00 W/m2
04:30 8.3 °C 6.6 °C 1016.1 hPa SSW 19.5 km/h 27.4 km/h 89% 0.0 mm 123.00 W/m2
04:35 8.6 °C 6.7 °C 1016.1 hPa SSW 7.9 km/h 20.9 km/h 88% 0.0 mm 146.00 W/m2
04:40 8.7 °C 6.7 °C 1016.1 hPa SSW 13.0 km/h 16.1 km/h 87% 0.0 mm 114.00 W/m2
04:45 8.7 °C 6.7 °C 1016.1 hPa SSW 4.7 km/h 6.4 km/h 87% 0.0 mm 148.00 W/m2
04:50 8.8 °C 6.8 °C 1016.1 hPa SSW 7.9 km/h 9.7 km/h 87% 0.0 mm 163.00 W/m2
04:55 9.0 °C 7.0 °C 1016.1 hPa SW 9.7 km/h 19.3 km/h 87% 0.0 mm 183.00 W/m2
05:00 9.2 °C 7.0 °C 1016.1 hPa SSW 6.4 km/h 12.9 km/h 86% 0.0 mm 98.00 W/m2
05:05 9.3 °C 7.1 °C 1016.1 hPa SSW 4.7 km/h 8.0 km/h 86% 0.0 mm 83.00 W/m2
05:10 9.4 °C 7.2 °C 1016.1 hPa SW 16.3 km/h 19.3 km/h 86% 0.0 mm 83.00 W/m2
05:15 9.4 °C 7.0 °C 1016.1 hPa West 7.9 km/h 8.0 km/h 85% 0.0 mm 105.00 W/m2
05:20 9.6 °C 7.2 °C 1016.1 hPa Calm   8.0 km/h 85% 0.0 mm 135.00 W/m2
05:25 9.7 °C 7.3 °C 1015.8 hPa SSW 7.9 km/h 8.0 km/h 85% 0.0 mm 236.00 W/m2
05:30 10.1 °C 7.5 °C 1015.8 hPa South 1.4 km/h 8.0 km/h 84% 0.0 mm 265.00 W/m2
05:35 10.4 °C 7.6 °C 1015.8 hPa SSW 4.7 km/h 22.5 km/h 83% 0.0 mm 378.00 W/m2
05:40 10.7 °C 7.8 °C 1015.5 hPa SSE 6.4 km/h 24.1 km/h 82% 0.0 mm 313.00 W/m2
05:46 10.8 °C 7.7 °C 1015.5 hPa West 4.7 km/h 17.7 km/h 81% 0.0 mm 318.00 W/m2
05:50 10.9 °C 7.6 °C 1015.1 hPa SSW 11.1 km/h 29.0 km/h 80% 0.0 mm 327.00 W/m2
05:55 10.9 °C 7.6 °C 1015.1 hPa West 13.0 km/h 27.4 km/h 80% 0.0 mm 295.00 W/m2
06:00 10.8 °C 7.5 °C 1015.5 hPa SW 17.7 km/h 30.6 km/h 80% 0.0 mm 323.00 W/m2
06:05 10.9 °C 7.4 °C 1015.5 hPa SSW 14.3 km/h 37.0 km/h 79% 0.0 mm 355.00 W/m2
06:10 11.1 °C 7.8 °C 1015.5 hPa SSW 11.1 km/h 24.1 km/h 80% 0.0 mm 392.00 W/m2
06:15 11.2 °C 7.7 °C 1015.8 hPa SW 22.7 km/h 30.6 km/h 79% 0.0 mm 401.00 W/m2
06:20 11.3 °C 7.8 °C 1016.1 hPa West 9.7 km/h 35.4 km/h 79% 0.0 mm 420.00 W/m2
06:25 11.6 °C 7.9 °C 1016.1 hPa WNW 13.0 km/h 27.4 km/h 78% 0.0 mm 323.00 W/m2
06:30 11.4 °C 7.7 °C 1016.1 hPa SW 9.7 km/h 30.6 km/h 78% 0.0 mm 281.00 W/m2
06:35 11.3 °C 7.6 °C 1016.1 hPa WSW 17.7 km/h 38.6 km/h 78% 0.0 mm 206.00 W/m2
06:40 11.2 °C 7.5 °C 1016.1 hPa SW 24.1 km/h 30.6 km/h 78% 0.0 mm 155.00 W/m2
06:45 11.2 °C 7.5 °C 1016.1 hPa SW 22.7 km/h 33.8 km/h 78% 0.0 mm 56.00 W/m2
06:50 11.1 °C 7.4 °C 1016.1 hPa West 20.9 km/h 32.2 km/h 78% 0.0 mm 49.00 W/m2
06:55 10.9 °C 7.2 °C 1016.1 hPa SW 11.1 km/h 29.0 km/h 78% 0.0 mm 49.00 W/m2
07:00 10.9 °C 7.2 °C 1016.1 hPa SW 22.7 km/h 35.4 km/h 78% 0.0 mm 51.00 W/m2
07:05 10.9 °C 7.4 °C 1016.1 hPa South 11.1 km/h 33.8 km/h 79% 0.0 mm 58.00 W/m2
07:10 10.9 °C 7.4 °C 1015.8 hPa SW 6.4 km/h 35.4 km/h 79% 0.0 mm 134.00 W/m2
07:15 10.9 °C 7.4 °C 1015.5 hPa SW 9.7 km/h 25.7 km/h 79% 0.0 mm 162.00 W/m2
07:20 10.9 °C 7.4 °C 1015.1 hPa South 20.9 km/h 22.5 km/h 79% 0.0 mm 178.00 W/m2
07:25 10.9 °C 7.6 °C 1014.8 hPa WSW 22.7 km/h 27.4 km/h 80% 0.0 mm 172.00 W/m2
07:30 10.9 °C 7.6 °C 1014.8 hPa SSW 14.3 km/h 30.6 km/h 80% 0.0 mm 186.00 W/m2
07:35 11.1 °C 7.8 °C 1014.8 hPa SW 17.7 km/h 27.4 km/h 80% 0.0 mm 192.00 W/m2
07:40 11.1 °C 7.8 °C 1014.8 hPa West 22.7 km/h 29.0 km/h 80% 0.0 mm 243.00 W/m2
07:45 11.2 °C 7.9 °C 1014.8 hPa SSW 14.3 km/h 32.2 km/h 80% 0.0 mm 246.00 W/m2
07:50 11.2 °C 7.9 °C 1014.8 hPa South 22.7 km/h 33.8 km/h 80% 0.0 mm 243.00 W/m2
07:55 11.2 °C 7.9 °C 1014.8 hPa South 14.3 km/h 27.4 km/h 80% 0.0 mm 221.00 W/m2
08:00 11.2 °C 8.1 °C 1014.8 hPa SW 16.3 km/h 30.6 km/h 81% 0.0 mm 220.00 W/m2
08:05 11.2 °C 8.1 °C 1014.4 hPa WSW 19.5 km/h 29.0 km/h 81% 0.0 mm 199.00 W/m2
08:10 11.2 °C 8.1 °C 1014.8 hPa SW 11.1 km/h 25.7 km/h 81% 0.0 mm 207.00 W/m2
08:15 11.3 °C 8.3 °C 1014.8 hPa SW 7.9 km/h 22.5 km/h 82% 0.0 mm 172.00 W/m2
08:20 11.2 °C 8.2 °C 1014.8 hPa South 11.1 km/h 25.7 km/h 82% 0.0 mm 125.00 W/m2
08:25 11.2 °C 8.2 °C 1014.8 hPa SW 9.7 km/h 25.7 km/h 82% 0.0 mm 70.00 W/m2
08:30 11.2 °C 8.4 °C 1014.8 hPa SW 13.0 km/h 20.9 km/h 83% 0.0 mm 54.00 W/m2
08:35 11.1 °C 8.3 °C 1014.8 hPa SW 6.4 km/h 12.9 km/h 83% 0.0 mm 53.00 W/m2
08:40 11.1 °C 8.5 °C 1014.8 hPa SW 11.1 km/h 22.5 km/h 84% 0.0 mm 44.00 W/m2
08:45 11.0 °C 8.6 °C 1014.8 hPa South 16.3 km/h 22.5 km/h 85% 0.0 mm 44.00 W/m2
08:50 10.9 °C 8.5 °C 1014.4 hPa SSW 3.2 km/h 19.3 km/h 85% 0.0 mm 47.00 W/m2
08:56 10.9 °C 8.6 °C 1014.8 hPa SW 6.4 km/h 16.1 km/h 86% 0.0 mm 49.00 W/m2
09:00 11.0 °C 8.7 °C 1014.8 hPa WSW 14.3 km/h 19.3 km/h 86% 0.0 mm 42.00 W/m2
09:05 11.1 °C 8.8 °C 1014.8 hPa SW 14.3 km/h 16.1 km/h 86% 0.0 mm 40.00 W/m2
09:10 11.1 °C 8.8 °C 1014.8 hPa SSE 11.1 km/h 24.1 km/h 86% 0.0 mm 58.00 W/m2
09:15 11.1 °C 8.8 °C 1014.4 hPa SW 9.7 km/h 17.7 km/h 86% 0.0 mm 114.00 W/m2
09:20 11.2 °C 9.1 °C 1014.4 hPa West 11.1 km/h 19.3 km/h 87% 0.0 mm 100.00 W/m2
09:25 11.2 °C 9.1 °C 1014.1 hPa SSW 24.1 km/h 25.7 km/h 87% 0.0 mm 127.00 W/m2
09:30 11.2 °C 9.1 °C 1014.4 hPa South 24.1 km/h 35.4 km/h 87% 0.0 mm 155.00 W/m2
09:35 11.3 °C 9.2 °C 1014.4 hPa SW 13.0 km/h 27.4 km/h 87% 0.0 mm 121.00 W/m2
09:40 11.3 °C 9.2 °C 1014.4 hPa SSW 25.9 km/h 37.0 km/h 87% 0.0 mm 135.00 W/m2
09:45 11.3 °C 9.2 °C 1014.4 hPa SSW 13.0 km/h 30.6 km/h 87% 0.0 mm 84.00 W/m2
09:50 11.3 °C 9.2 °C 1014.4 hPa SW 20.9 km/h 24.1 km/h 87% 0.0 mm 69.00 W/m2
09:55 11.2 °C 9.1 °C 1014.4 hPa SW 7.9 km/h 29.0 km/h 87% 0.0 mm 51.00 W/m2
10:00 11.2 °C 9.1 °C 1014.4 hPa SSE 14.3 km/h 32.2 km/h 87% 0.0 mm 46.00 W/m2
10:05 11.2 °C 9.1 °C 1014.4 hPa SW 20.9 km/h 27.4 km/h 87% 0.0 mm 37.00 W/m2
10:10 11.2 °C 9.1 °C 1014.4 hPa SSW 9.7 km/h 20.9 km/h 87% 0.0 mm 40.00 W/m2
10:15 11.1 °C 9.2 °C 1014.4 hPa South 17.7 km/h 29.0 km/h 88% 0.0 mm 32.00 W/m2
10:20 11.1 °C 9.2 °C 1014.4 hPa South 16.3 km/h 22.5 km/h 88% 0.0 mm 44.00 W/m2
10:25 11.0 °C 9.3 °C 1014.4 hPa South 13.0 km/h 27.4 km/h 89% 0.0 mm 39.00 W/m2
10:30 10.9 °C 9.2 °C 1014.4 hPa SSW 9.7 km/h 22.5 km/h 89% 0.0 mm 54.00 W/m2
10:35 10.9 °C 9.3 °C 1014.4 hPa South 11.1 km/h 20.9 km/h 90% 0.0 mm 49.00 W/m2
10:40 10.8 °C 9.2 °C 1014.4 hPa South 19.5 km/h 19.3 km/h 90% 0.0 mm 37.00 W/m2
10:45 10.8 °C 9.2 °C 1014.4 hPa South 16.3 km/h 17.7 km/h 90% 0.0 mm 37.00 W/m2
10:50 10.8 °C 9.2 °C 1014.1 hPa SSW 14.3 km/h 22.5 km/h 90% 0.0 mm 44.00 W/m2
10:55 10.8 °C 9.2 °C 1014.1 hPa South 13.0 km/h 19.3 km/h 90% 0.0 mm 40.00 W/m2
11:00 10.8 °C 9.2 °C 1014.4 hPa SW 13.0 km/h 16.1 km/h 90% 0.0 mm 32.00 W/m2
11:05 10.8 °C 9.2 °C 1014.4 hPa SW 13.0 km/h 16.1 km/h 90% 0.0 mm 18.00 W/m2
11:10 10.7 °C 9.3 °C 1014.1 hPa SW 4.7 km/h 14.5 km/h 91% 0.0 mm 18.00 W/m2
11:15 10.7 °C 9.3 °C 1014.4 hPa SSW 7.9 km/h 24.1 km/h 91% 0.0 mm 19.00 W/m2
11:20 10.7 °C 9.3 °C 1014.1 hPa SSW 4.7 km/h 25.7 km/h 91% 0.0 mm 19.00 W/m2
11:25 10.7 °C 9.3 °C 1014.4 hPa SW 6.4 km/h 12.9 km/h 91% 0.0 mm 18.00 W/m2
11:30 10.6 °C 9.2 °C 1014.1 hPa SSW 6.4 km/h 16.1 km/h 91% 0.0 mm 18.00 W/m2
11:35 10.6 °C 9.2 °C 1014.1 hPa SW 13.0 km/h 20.9 km/h 91% 0.0 mm 16.00 W/m2
11:40 10.6 °C 9.4 °C 1014.4 hPa WSW 9.7 km/h 20.9 km/h 92% 0.0 mm 12.00 W/m2
11:45 10.6 °C 9.4 °C 1014.4 hPa SW 9.7 km/h 25.7 km/h 92% 0.0 mm 18.00 W/m2
11:50 10.6 °C 9.4 °C 1014.1 hPa SW 9.7 km/h 16.1 km/h 92% 0.0 mm 11.00 W/m2
11:55 10.7 °C 9.5 °C 1014.1 hPa SW 13.0 km/h 19.3 km/h 92% 0.0 mm 9.00 W/m2
12:00 10.7 °C 9.5 °C 1014.4 hPa SSW 6.4 km/h 12.9 km/h 92% 0.0 mm 7.00 W/m2
12:05 10.7 °C 9.5 °C 1014.4 hPa SW 13.0 km/h 27.4 km/h 92% 0.0 mm 5.00 W/m2
12:10 10.7 °C 9.5 °C 1014.4 hPa South 14.3 km/h 22.5 km/h 92% 0.0 mm 0.00 W/m2
12:15 10.7 °C 9.5 °C 1014.4 hPa SSW 9.7 km/h 17.7 km/h 92% 0.0 mm 0.00 W/m2
12:21 10.7 °C 9.5 °C 1014.4 hPa SSW 13.0 km/h 16.1 km/h 92% 0.0 mm 0.00 W/m2
12:25 10.7 °C 9.5 °C 1014.4 hPa WSW 7.9 km/h 16.1 km/h 92% 0.0 mm 0.00 W/m2
12:30 10.7 °C 9.5 °C 1014.4 hPa SSW 6.4 km/h 19.3 km/h 92% 0.3 mm 0.00 W/m2
12:35 10.7 °C 9.5 °C 1014.4 hPa SSW 13.0 km/h 20.9 km/h 92% 0.3 mm 0.00 W/m2
12:40 10.8 °C 9.6 °C 1014.4 hPa SSW 14.3 km/h 17.7 km/h 92% 0.3 mm 0.00 W/m2
12:45 10.8 °C 9.6 °C 1014.4 hPa SSW 14.3 km/h 27.4 km/h 92% 0.3 mm 0.00 W/m2
12:50 10.8 °C 9.6 °C 1014.4 hPa South 7.9 km/h 35.4 km/h 92% 0.3 mm 0.00 W/m2
12:55 10.8 °C 9.6 °C 1014.4 hPa SSW 7.9 km/h 16.1 km/h 92% 0.3 mm 0.00 W/m2
13:00 10.8 °C 9.6 °C 1014.4 hPa WSW 11.1 km/h 16.1 km/h 92% 0.3 mm 0.00 W/m2
13:05 10.8 °C 9.6 °C 1014.4 hPa South 11.1 km/h 17.7 km/h 92% 0.3 mm 0.00 W/m2
13:10 10.8 °C 9.6 °C 1014.4 hPa SSW 4.7 km/h 20.9 km/h 92% 0.5 mm 0.00 W/m2
13:15 10.8 °C 9.6 °C 1014.4 hPa SW 7.9 km/h 17.7 km/h 92% 0.5 mm 0.00 W/m2
13:20 10.8 °C 9.6 °C 1014.4 hPa SW 7.9 km/h 16.1 km/h 92% 0.5 mm 0.00 W/m2
13:25 10.8 °C 9.6 °C 1014.4 hPa SSW 3.2 km/h 11.3 km/h 92% 0.8 mm 0.00 W/m2
13:30 10.8 °C 9.6 °C 1014.4 hPa South 6.4 km/h 14.5 km/h 92% 0.5 mm 0.00 W/m2
13:35 10.9 °C 9.7 °C 1014.1 hPa SW 11.1 km/h 20.9 km/h 92% 0.5 mm 0.00 W/m2
13:40 10.8 °C 9.6 °C 1014.1 hPa SW 7.9 km/h 19.3 km/h 92% 0.5 mm 0.00 W/m2
13:45 10.9 °C 9.7 °C 1014.1 hPa SSW 6.4 km/h 22.5 km/h 92% 0.5 mm 0.00 W/m2
13:50 10.9 °C 9.7 °C 1014.1 hPa SW 9.7 km/h 19.3 km/h 92% 0.5 mm 0.00 W/m2
13:56 10.9 °C 9.8 °C 1014.1 hPa SW 19.5 km/h 24.1 km/h 93% 0.5 mm 0.00 W/m2
14:00 11.0 °C 9.9 °C 1014.1 hPa SSW 11.1 km/h 17.7 km/h 93% 0.5 mm 0.00 W/m2
14:05 11.0 °C 9.8 °C 1014.1 hPa SW 13.0 km/h 24.1 km/h 92% 0.5 mm 0.00 W/m2
14:10 11.1 °C 9.8 °C 1014.1 hPa South 7.9 km/h 17.7 km/h 92% 0.5 mm 0.00 W/m2
14:15 11.1 °C 9.8 °C 1014.1 hPa South 6.4 km/h 16.1 km/h 92% 0.5 mm 0.00 W/m2
14:20 11.1 °C 9.8 °C 1014.1 hPa SSW 9.7 km/h 12.9 km/h 92% 0.3 mm 0.00 W/m2
14:25 11.1 °C 9.8 °C 1013.8 hPa WSW 9.7 km/h 19.3 km/h 92% 0.0 mm 0.00 W/m2
14:30 11.1 °C 9.8 °C 1014.1 hPa WSW 6.4 km/h 14.5 km/h 92% 0.0 mm 0.00 W/m2
14:35 11.1 °C 9.8 °C 1014.1 hPa SW 9.7 km/h 12.9 km/h 92% 0.0 mm 0.00 W/m2
14:40 11.1 °C 9.8 °C 1014.1 hPa SW 7.9 km/h 12.9 km/h 92% 0.0 mm 0.00 W/m2
14:45 11.1 °C 9.8 °C 1014.1 hPa SSW 4.7 km/h 14.5 km/h 92% 0.0 mm 0.00 W/m2
14:50 11.2 °C 9.9 °C 1014.1 hPa SSW 9.7 km/h 17.7 km/h 92% 0.0 mm 0.00 W/m2
14:55 11.2 °C 9.9 °C 1014.1 hPa WSW 17.7 km/h 19.3 km/h 92% 0.0 mm 0.00 W/m2
15:00 11.2 °C 9.9 °C 1013.8 hPa SSW 14.3 km/h 17.7 km/h 92% 0.0 mm 0.00 W/m2
15:05 11.2 °C 9.9 °C 1013.8 hPa SW 11.1 km/h 16.1 km/h 92% 0.3 mm 0.00 W/m2
15:10 11.2 °C 9.9 °C 1013.8 hPa SSW 7.9 km/h 16.1 km/h 92% 0.3 mm 0.00 W/m2
15:15 11.2 °C 9.9 °C 1013.8 hPa SW 11.1 km/h 14.5 km/h 92% 0.3 mm 0.00 W/m2
15:20 11.2 °C 9.9 °C 1013.4 hPa WSW 9.7 km/h 12.9 km/h 92% 0.3 mm 0.00 W/m2
15:25 11.1 °C 9.8 °C 1013.4 hPa SW 7.9 km/h 9.7 km/h 92% 0.5 mm 0.00 W/m2
15:30 11.1 °C 9.8 °C 1013.4 hPa SW 13.0 km/h 14.5 km/h 92% 0.5 mm 0.00 W/m2
15:35 11.2 °C 10.1 °C 1013.4 hPa WSW 9.7 km/h 16.1 km/h 93% 0.5 mm 0.00 W/m2
15:40 11.2 °C 10.1 °C 1013.4 hPa SSW 6.4 km/h 12.9 km/h 93% 0.5 mm 0.00 W/m2
15:45 11.1 °C 10.0 °C 1013.4 hPa SSW 4.7 km/h 11.3 km/h 93% 0.5 mm 0.00 W/m2
15:50 11.2 °C 10.1 °C 1013.4 hPa SW 7.9 km/h 11.3 km/h 93% 0.5 mm 0.00 W/m2
15:55 11.2 °C 10.1 °C 1013.4 hPa West 7.9 km/h 14.5 km/h 93% 0.5 mm 0.00 W/m2
16:00 11.2 °C 10.1 °C 1013.4 hPa West 6.4 km/h 14.5 km/h 93% 0.8 mm 0.00 W/m2
16:05 11.2 °C 10.1 °C 1013.4 hPa SW 9.7 km/h 14.5 km/h 93% 0.5 mm 0.00 W/m2
16:10 11.2 °C 10.1 °C 1013.4 hPa WSW 13.0 km/h 17.7 km/h 93% 0.8 mm 0.00 W/m2
16:15 11.2 °C 10.1 °C 1013.4 hPa WSW 6.4 km/h 14.5 km/h 93% 0.8 mm 0.00 W/m2
16:20 11.2 °C 10.1 °C 1013.4 hPa SSW 11.1 km/h 16.1 km/h 93% 0.8 mm 0.00 W/m2
16:25 11.2 °C 10.1 °C 1013.4 hPa West 4.7 km/h 17.7 km/h 93% 0.5 mm 0.00 W/m2
16:30 11.2 °C 10.1 °C 1013.4 hPa WSW 11.1 km/h 17.7 km/h 93% 0.5 mm 0.00 W/m2
16:35 11.2 °C 10.1 °C 1013.4 hPa SW 16.3 km/h 17.7 km/h 93% 0.5 mm 0.00 W/m2
16:40 11.3 °C 10.2 °C 1013.4 hPa SW 7.9 km/h 12.9 km/h 93% 0.5 mm 0.00 W/m2
16:45 11.3 °C 10.2 °C 1013.4 hPa SSW 7.9 km/h 14.5 km/h 93% 0.5 mm 0.00 W/m2
16:50 11.3 °C 10.2 °C 1013.1 hPa WSW 7.9 km/h 16.1 km/h 93% 0.5 mm 0.00 W/m2
16:55 11.3 °C 10.2 °C 1013.4 hPa WSW 13.0 km/h 16.1 km/h 93% 0.5 mm 0.00 W/m2
17:00 11.3 °C 10.2 °C 1013.4 hPa WSW 7.9 km/h 11.3 km/h 93% 0.3 mm 0.00 W/m2
17:05 11.3 °C 10.2 °C 1013.4 hPa SW 6.4 km/h 14.5 km/h 93% 0.3 mm 0.00 W/m2
17:10 11.3 °C 10.2 °C 1013.1 hPa SW 6.4 km/h 12.9 km/h 93% 0.0 mm 0.00 W/m2
17:15 11.3 °C 10.2 °C 1013.4 hPa SW 9.7 km/h 11.3 km/h 93% 0.0 mm 0.00 W/m2
17:20 11.3 °C 10.2 °C 1013.4 hPa West 11.1 km/h 16.1 km/h 93% 0.0 mm 0.00 W/m2
17:25 11.3 °C 10.2 °C 1013.4 hPa WSW 13.0 km/h 16.1 km/h 93% 0.0 mm 0.00 W/m2
17:30 11.3 °C 10.2 °C 1013.4 hPa SW 13.0 km/h 16.1 km/h 93% 0.3 mm 0.00 W/m2
17:35 11.3 °C 10.2 °C 1013.4 hPa West 6.4 km/h 11.3 km/h 93% 0.5 mm 0.00 W/m2
17:40 11.2 °C 10.1 °C 1013.4 hPa West 9.7 km/h 12.9 km/h 93% 0.5 mm 0.00 W/m2
17:45 11.2 °C 10.1 °C 1013.1 hPa SW 9.7 km/h 12.9 km/h 93% 0.8 mm 0.00 W/m2
17:50 11.2 °C 10.1 °C 1012.8 hPa SSW 4.7 km/h 4.8 km/h 93% 0.8 mm 0.00 W/m2
17:55 11.2 °C 10.1 °C 1013.1 hPa WSW 9.7 km/h 14.5 km/h 93% 1.0 mm 0.00 W/m2
18:00 11.2 °C 10.1 °C 1013.1 hPa SW 7.9 km/h 14.5 km/h 93% 1.0 mm 0.00 W/m2
18:05 11.2 °C 10.1 °C 1013.1 hPa South 11.1 km/h 11.3 km/h 93% 1.3 mm 0.00 W/m2
18:10 11.2 °C 10.1 °C 1013.1 hPa SSW 9.7 km/h 14.5 km/h 93% 1.5 mm 0.00 W/m2
18:15 11.2 °C 10.1 °C 1013.1 hPa WSW 6.4 km/h 11.3 km/h 93% 1.5 mm 0.00 W/m2
18:20 11.2 °C 10.1 °C 1013.1 hPa SW 6.4 km/h 6.4 km/h 93% 1.8 mm 0.00 W/m2
18:25 11.1 °C 10.0 °C 1012.8 hPa SSW 1.4 km/h 6.4 km/h 93% 2.0 mm 0.00 W/m2
18:30 11.1 °C 10.0 °C 1012.8 hPa SW 6.4 km/h 9.7 km/h 93% 2.0 mm 0.00 W/m2
18:35 11.1 °C 10.0 °C 1012.8 hPa SW 3.2 km/h 9.7 km/h 93% 1.8 mm 0.00 W/m2
18:40 11.1 °C 10.0 °C 1012.8 hPa SSW 9.7 km/h 9.7 km/h 93% 1.5 mm 0.00 W/m2
18:45 11.1 °C 10.0 °C 1012.8 hPa WSW 6.4 km/h 11.3 km/h 93% 1.5 mm 0.00 W/m2
18:50 11.1 °C 10.2 °C 1012.8 hPa SSW 1.4 km/h 11.3 km/h 94% 1.5 mm 0.00 W/m2
18:55 11.1 °C 10.2 °C 1012.8 hPa WSW 6.4 km/h 9.7 km/h 94% 1.3 mm 0.00 W/m2
19:00 11.1 °C 10.2 °C 1012.8 hPa SSW 4.7 km/h 11.3 km/h 94% 1.3 mm 0.00 W/m2
19:05 11.1 °C 10.2 °C 1012.8 hPa SW 4.7 km/h 8.0 km/h 94% 1.0 mm 0.00 W/m2
19:10 11.1 °C 10.2 °C 1012.8 hPa SW 7.9 km/h 9.7 km/h 94% 0.8 mm 0.00 W/m2
19:15 11.1 °C 10.2 °C 1012.4 hPa SW 3.2 km/h 11.3 km/h 94% 0.8 mm 0.00 W/m2
19:20 11.2 °C 10.3 °C 1012.4 hPa SW 12.9 km/h 12.9 km/h 94% 0.5 mm 0.00 W/m2
19:25 11.2 °C 10.1 °C 1012.8 hPa SSW 7.9 km/h 8.0 km/h 93% 0.3 mm 0.00 W/m2
19:30 11.2 °C 10.1 °C 1012.8 hPa SW 11.1 km/h 14.5 km/h 93% 0.0 mm 0.00 W/m2
19:35 11.2 °C 10.1 °C 1012.8 hPa WSW 9.7 km/h 14.5 km/h 93% 0.0 mm 0.00 W/m2
19:40 11.2 °C 10.1 °C 1012.8 hPa SW 13.0 km/h 14.5 km/h 93% 0.0 mm 0.00 W/m2
19:46 11.2 °C 10.1 °C 1012.4 hPa SW 6.4 km/h 20.9 km/h 93% 0.0 mm 0.00 W/m2
19:50 11.2 °C 10.1 °C 1012.4 hPa SSW 7.9 km/h 12.9 km/h 93% 0.0 mm 0.00 W/m2
19:55 11.2 °C 10.1 °C 1012.4 hPa SW 9.7 km/h 14.5 km/h 93% 0.3 mm 0.00 W/m2
20:00 11.2 °C 10.1 °C 1012.4 hPa SSW 7.9 km/h 17.7 km/h 93% 0.3 mm 0.00 W/m2
20:05 11.1 °C 10.0 °C 1012.4 hPa SSW 4.7 km/h 12.9 km/h 93% 0.3 mm 0.00 W/m2
20:10 11.1 °C 10.0 °C 1012.1 hPa West 6.4 km/h 9.7 km/h 93% 0.3 mm 0.00 W/m2
20:15 11.1 °C 10.0 °C 1012.1 hPa South 6.4 km/h 9.7 km/h 93% 0.3 mm 0.00 W/m2
20:20 11.1 °C 10.0 °C 1011.7 hPa WSW 7.9 km/h 11.3 km/h 93% 0.3 mm 0.00 W/m2
20:25 11.1 °C 10.0 °C 1011.7 hPa SSW 7.9 km/h 9.7 km/h 93% 0.3 mm 0.00 W/m2
20:30 11.1 °C 10.0 °C 1011.7 hPa SSW 4.7 km/h 14.5 km/h 93% 0.3 mm 0.00 W/m2
20:35 11.1 °C 10.0 °C 1011.7 hPa WSW 9.7 km/h 19.3 km/h 93% 0.3 mm 0.00 W/m2
20:40 11.1 °C 10.0 °C 1011.7 hPa SSW 6.4 km/h 9.7 km/h 93% 0.3 mm 0.00 W/m2
20:45 11.0 °C 9.9 °C 1011.7 hPa SSW 3.2 km/h 9.7 km/h 93% 0.3 mm 0.00 W/m2
20:50 10.9 °C 9.8 °C 1011.7 hPa SSW 4.7 km/h 11.3 km/h 93% 0.3 mm 0.00 W/m2
20:55 10.9 °C 10.0 °C 1011.4 hPa SSW 1.4 km/h 11.3 km/h 94% 0.0 mm 0.00 W/m2
21:00 10.9 °C 10.0 °C 1011.7 hPa SW 4.7 km/h 11.3 km/h 94% 0.0 mm 0.00 W/m2
21:05 10.9 °C 10.0 °C 1011.4 hPa SW 11.1 km/h 11.3 km/h 94% 0.0 mm 0.00 W/m2
21:10 10.9 °C 10.0 °C 1011.4 hPa WSW 9.7 km/h 16.1 km/h 94% 0.0 mm 0.00 W/m2
21:15 10.9 °C 10.0 °C 1011.4 hPa WSW 6.4 km/h 16.1 km/h 94% 0.0 mm 0.00 W/m2
21:20 10.9 °C 10.0 °C 1011.4 hPa WSW 6.4 km/h 9.7 km/h 94% 0.0 mm 0.00 W/m2
21:25 10.9 °C 10.0 °C 1011.1 hPa SW 7.9 km/h 16.1 km/h 94% 0.0 mm 0.00 W/m2
21:30 10.9 °C 10.0 °C 1011.1 hPa South 9.7 km/h 14.5 km/h 94% 0.0 mm 0.00 W/m2
21:35 10.9 °C 10.0 °C 1011.1 hPa WSW 4.7 km/h 14.5 km/h 94% 0.0 mm 0.00 W/m2
21:40 11.0 °C 10.1 °C 1010.7 hPa SW 6.4 km/h 14.5 km/h 94% 0.0 mm 0.00 W/m2
21:45 11.1 °C 10.2 °C 1010.7 hPa South 6.4 km/h 14.5 km/h 94% 0.0 mm 0.00 W/m2
21:50 11.1 °C 10.2 °C 1010.7 hPa South 6.4 km/h 16.1 km/h 94% 0.0 mm 0.00 W/m2
21:55 11.1 °C 10.2 °C 1010.7 hPa SW 7.9 km/h 14.5 km/h 94% 0.0 mm 0.00 W/m2
22:00 11.1 °C 10.2 °C 1010.7 hPa SW 11.1 km/h 12.9 km/h 94% 0.0 mm 0.00 W/m2
22:05 11.2 °C 10.3 °C 1010.4 hPa SW 11.1 km/h 12.9 km/h 94% 0.0 mm 0.00 W/m2
22:10 11.2 °C 10.3 °C 1010.4 hPa SSE 6.4 km/h 19.3 km/h 94% 0.0 mm 0.00 W/m2
22:15 11.2 °C 10.3 °C 1010.0 hPa SW 11.1 km/h 19.3 km/h 94% 0.0 mm 0.00 W/m2
22:20 11.3 °C 10.4 °C 1010.0 hPa SW 11.1 km/h 17.7 km/h 94% 0.0 mm 0.00 W/m2
22:25 11.3 °C 10.4 °C 1010.0 hPa South 4.7 km/h 24.1 km/h 94% 0.0 mm 0.00 W/m2
22:30 11.3 °C 10.4 °C 1010.0 hPa SSW 4.7 km/h 20.9 km/h 94% 0.0 mm 0.00 W/m2
22:35 11.3 °C 10.4 °C 1010.0 hPa South 11.1 km/h 16.1 km/h 94% 0.0 mm 0.00 W/m2
22:40 11.3 °C 10.4 °C 1009.7 hPa SW 7.9 km/h 20.9 km/h 94% 0.0 mm 0.00 W/m2
22:45 11.4 °C 10.5 °C 1009.4 hPa South 11.1 km/h 27.4 km/h 94% 0.0 mm 0.00 W/m2
22:50 11.4 °C 10.5 °C 1009.7 hPa WSW 16.3 km/h 24.1 km/h 94% 0.0 mm 0.00 W/m2
22:55 11.5 °C 10.6 °C 1009.7 hPa SW 11.1 km/h 19.3 km/h 94% 0.0 mm 0.00 W/m2
23:00 11.5 °C 10.6 °C 1009.4 hPa SW 13.0 km/h 14.5 km/h 94% 0.0 mm 0.00 W/m2
23:05 11.6 °C 10.7 °C 1009.4 hPa SW 16.3 km/h 19.3 km/h 94% 0.3 mm 0.00 W/m2
23:10 11.6 °C 10.5 °C 1009.0 hPa SSW 7.9 km/h 19.3 km/h 93% 0.3 mm 0.00 W/m2
23:15 11.6 °C 10.5 °C 1009.0 hPa South 13.0 km/h 20.9 km/h 93% 0.3 mm 0.00 W/m2
23:20 11.6 °C 10.5 °C 1009.0 hPa SSW 11.1 km/h 19.3 km/h 93% 0.3 mm 0.00 W/m2
23:25 11.7 °C 10.6 °C 1009.0 hPa South 6.4 km/h 16.1 km/h 93% 0.3 mm 0.00 W/m2
23:30 11.7 °C 10.6 °C 1009.0 hPa SSW 14.3 km/h 25.7 km/h 93% 0.3 mm 0.00 W/m2
23:35 11.7 °C 10.6 °C 1009.0 hPa SSE 7.9 km/h 19.3 km/h 93% 0.3 mm 0.00 W/m2
23:40 11.7 °C 10.6 °C 1009.0 hPa SSW 13.0 km/h 24.1 km/h 93% 0.3 mm 0.00 W/m2
23:45 11.8 °C 10.7 °C 1008.7 hPa SW 19.5 km/h 30.6 km/h 93% 0.3 mm 0.00 W/m2
23:50 11.8 °C 10.7 °C 1008.7 hPa WSW 22.7 km/h 30.6 km/h 93% 0.3 mm 0.00 W/m2
23:55 11.8 °C 10.7 °C 1008.4 hPa SW 6.4 km/h 19.3 km/h 93% 0.3 mm 0.00 W/m2